Garneill, Montana
Current Conditions -  °F | °C
As of 3:54 AM on Friday 28 Nov 2014 (Local Time) from KLWT Reporting Station
Clear Clear  
Wind Chill: 43°   Ceiling: Unl
Heat Index: 49°   Visibility: 10mi
Dew Point: 32°   Wind: 17mph
Humidity: 52%   Direction: 250°WSW
Pressure: 29.64"   Gusts: NA
Location:  46.75°N, 109.75°W
Report Text: KLWT 281054Z AUTO 25015KT 10SM CLR 09/00 A2964 RMK AO2 PK WND 25026/0956 SLP027 T00940000
Loading
Personal Weather Stations






























Interactive Weather Map New forecast layout! Learn more

10-Day Weather Forecast

Advertisements
Track Severe Weather on mobile